FAJB

Johannesburg City Airport

Johannesburg, South Africa
METAR FAJB 202300Z AUTO 00000KT //// // ////// 12/04 Q1023
Observed Flight Rules
Aug-20 @ 23:00 UTC (an hour ago)
Temperatures Readings
Current 12°C / 54°F
Dewpoint 4°C / 39°F
Humidity 58%
Altimeter 30.21" Hg
Pressure 1023 hPa
Elevation 1626
METAR FAJB 202300Z AUTO 00000KT //// // ////// 12/04 Q1023
Observed Flight Rules
Aug-20 @ 23:00 UTC
(an hour ago)
Temperature Dewpoint
12°C / 54°F 4°C / 39°F
Humidity Altimeter Pressure
58% 30.21" Hg 1023 hPa